Irbid, Jordan

1:31 AM EET on February 10, 2016 (GMT +0200)
Marka International | | Change Station
CLOSE
Current Station
Airport
Location: Amman,
Elevation: 2556 ft
Nearby Weather Stations

Elev 2556 ft 31.97 °N, 35.99 °E | Updated 31 minutes ago

Clear
Clear
43 °F
Feels Like 43 °F
N
0
Wind Variable Wind from North

Today
High -- | Low -- °F
--% Chance of Precip.
Yesterday
High -- | Low -- °F
Precip. -- in
Pressure 30.12 in
Visibility 4.3 miles
Clouds
Dew Point 32 °F
Humidity 66%
Rainfall 0.00 in
Snow Depth Not available.
6:24 AM 5:17 PM
Waxing Crescent, 3% visible
METAR OJAM 092300Z 00000KT 7000 NSC 06/M00 Q1020 NOSIG
Pressure 30.12 in
Visibility 4.3 miles
Clouds
Dew Point 32 °F
Humidity 66%
Rainfall 0.00 in
Snow Depth Not available.
6:24 AM 5:17 PM
Waxing Crescent, 3% visible
METAR OJAM 092300Z 00000KT 7000 NSC 06/M00 Q1020 NOSIG

10-Day Weather Forecast

No radar image for this location.
×

Almanac

Astronomy

Feb. 10, 2016 Rise Set
Actual Time
Civil Twilight
Nautical Twilight
Astronomical Twilight
Moon
Length of Visible Light
Length of Day
Tomorrow will be .
, % of the Moon is Illuminated

Today's Extremes

Country Highs Country Lows

Community

WunderPhotos

Upload Photos

1,891,743 photos uploaded!

WunderBlog® & News

Nearby

Air Quality

  Air Quality AQ Index Pollutant
Not available.

Snow Depth

Station Depth Elevation

Earthquake Activity

City Distance Mag. Time & Date
Minimum magnitude displayed is 2.5.

Coastal Water Temperatures

Place Temperature

Stations

Nearby Weather Stations

Station Location Temp. Windchill Dew Point Humidity Wind Precip. Elev Updated Type